Terminal Aerodrome Forecast
Issued by NWS Charleston, WV

Current Version | Previous Version | Graphics & Text | Print | Product List | Glossary On
Versions: 1 2 3 4 5 6 7 8 9 10 11 12 13 14 15 16 17 18 19 20 21 22
087
FTUS41 KRLX 290245 AAA
TAFEKN
TAF AMD
KEKN 290245Z 2903/2924 00000KT 3SM HZ BKN025
     FM290800 VRB03KT 3SM BR OVC010
     FM291100 26004KT 2SM HZ OVC008
     FM291500 28005KT 4SM HZ BKN015
     FM291800 30006KT P6SM BKN035=

USA.gov is the U.S. government's official web portal to all federal, state and local government web resources and services.